CheckWX is a tool to help pilots better visualize weather data.  It is not intended as a substitute for an official pre-flight weather briefing.

02:55:37 UTC

KMKN METAR
Comanche County-City Airport
Comanche, Texas, USA
Current

21 mins ago

KMKN 230235Z AUTO 02009KT 10SM SCT042 27/21 A3008 RMK AO2 T02740208
Observed
Jul-23 @ 02:35 UTC
Wind
  • 020° at 9 KTS
Visibility
10 SM
Flight Rules
VFR
Cloud Levels
  • Scattered at 4,200' AGL
Temperature
27°C / 81°F
Dewpoint
21°C / 70°F
Heat Index
29°C / 85°F
Humidity
70%
Altimeter
30.08" Hg
Pressure
1018.62 hPa
Previous

41 mins ago

KMKN 230215Z AUTO 03006KT 10SM SCT003 SCT045 27/22 A3007 RMK AO2 T02730215
Observed
Jul-23 @ 02:15 UTC
Wind
  • 030° at 6 KTS
Visibility
10 SM
Flight Rules
VFR
Cloud Levels
  • Scattered at 300' AGL
  • Scattered at 4,500' AGL
Temperature
27°C / 81°F
Dewpoint
22°C / 72°F
Heat Index
29°C / 85°F
Humidity
74%
Altimeter
30.07" Hg
Pressure
1018.32 hPa
Previous

1 hour ago

KMKN 230155Z AUTO 03006KT 10SM SCT003 BKN043 28/22 A3007 RMK AO2 T02770219
Observed
Jul-23 @ 01:55 UTC
Wind
  • 030° at 6 KTS
Visibility
10 SM
Flight Rules
VFR
Cloud Levels
  • Scattered at 300' AGL
  • Broken at 4,300' AGL
Temperature
28°C / 82°F
Dewpoint
22°C / 72°F
Heat Index
30°C / 86°F
Humidity
70%
Altimeter
30.07" Hg
Pressure
1018.32 hPa